Архив погоды в Алтае

Метеограмма Алтай
Среда, 22 Мая
Время местн. Темп Ветер Видим Явления Облачность нижн/средн/верх Атм. давл. Влжн Точка росы ВНГО R Сост. почвы Tg s
Напр Скр Прв ур.ст ур.м изм
23:00 +3.7° З 1 - 20 км - переменная облачность 754 757 +0.2 67% -1.8° более 2.5 км - - - -
20:00 +11.2° С-З 1 - 20 км - преимущественно облачно 754 757 0 28% -6.4° более 2.5 км 0 - - -
17:00 - +12° З,С-З 2 - - - - 754 757 -0.3 32% -4° - - - - -
14:00 +11° З,С-З 3 - 20 км - облачно с прояснениями 754 757 +0.1 33% -4.7° 1 км - - - -
11:00 - +9.1° С 3 - - - - 755 757 +0.1 41% -3.4° - - - - -
08:00 +6.1° С,С-В 2 - 20 км - незначительная облачность 755 758 +0.2 56% -2° более 2.5 км 0 Сухая (без трещин) +2° -
05:00 +1.9° С 1 - 20 км - незначительная облачность 754 757 +0.2 85% -0.4° 1 км - - - -
02:00 +3.9° С 2 - 20 км - преимущественно облачно 754 757 -0.1 77% +0.2° 1 км - - - -
Вторник, 21 Мая
Время местн. Темп Ветер Видим Явления Облачность нижн/средн/верх Атм. давл. Влжн Точка росы ВНГО R Сост. почвы Tg s
Напр Скр Прв ур.ст ур.м изм
23:00 +4.2° С-З 2 - 20 км - облачно 754 757 +0.4 77% +0.5° 1 км - - - -
20:00 +5.5° С 3 - 20 км - облачно 754 757 +0.6 68% +0.1° 1 км 0 - - -
17:00 - +6.7° С 3 - - - - 753 756 +1 60% -0.6° - - - - -
14:00 +7° С 2 - 20 км - преимущественно облачно 752 755 +1.1 58% -0.8° 1 км - - - -
11:00 - +6.4° С 2 - - - - 751 754 +0.9 60% -0.8° - - - - -
08:00 +5.2° С 2 - 20 км - облачно 750 753 +0.8 72% +0.5° 1 км 0 Сухая (без трещин) - -
05:00 +3.4° С 1 - 20 км - облачно 749 752 +0.2 84% +1° 1 км - - - -
02:00 +3.7° С 2 - 20 км - облачно 749 752 0 77% +0.1° 1 км - - - -
Понедельник, 20 Мая
Время местн. Темп Ветер Видим Явления Облачность нижн/средн/верх Атм. давл. Влжн Точка росы ВНГО R Сост. почвы Tg s
Напр Скр Прв ур.ст ур.м изм
23:00 +3.8° С 2 - 20 км - переменная облачность 749 752 +0.3 74% -0.4° 1 км - - - -
20:00 +7.4° С,С-З 2 - 20 км - облачно с прояснениями 749 752 +0.4 56% -0.8° 1 км 0 - - -
17:00 - +9.1° С,С-З 3 - - - - 748 751 +0.9 50% -0.7° - - - - -
14:00 +9.4° С-З 4 - 20 км - облачно с прояснениями 748 750 +1.1 54% +0.7° 1 км - - - -
11:00 - +9.6° С-З 4 - - - - 747 749 +0.6 56% +1.2° - - - - -
08:00 +8.3° С-З 3 - 20 км - переменная облачность 746 749 +0.3 67% +2.5° 1 км 0 Влажная (без луж) - -
05:00 +4° С-З 3 - 20 км - переменная облачность 746 749 0 81% +1.1° 1 км - - - -
02:00 +5.3° С 2 - 20 км - облачно с прояснениями 746 749 -0.7 73% +0.8° 1 км - - - -
Воскресенье, 19 Мая
Время местн. Темп Ветер Видим Явления Облачность нижн/средн/верх Атм. давл. Влжн Точка росы ВНГО R Сост. почвы Tg s
Напр Скр Прв ур.ст ур.м изм
23:00 +4.7° С 2 - 20 км - переменная облачность 746 749 -0.3 77% +1° - - - - -
20:00 +9.6° С 1 - 20 км - переменная облачность 747 749 -0.3 57% +1.5° - 0 - - -